createdAt,value
2019-03-04T00:02:23.957Z,99.90
2019-03-04T00:05:04.973Z,99.90
2019-03-04T00:07:45.568Z,99.90
2019-03-04T00:10:26.394Z,99.90
2019-03-04T00:13:07.190Z,99.90
2019-03-04T00:15:47.747Z,99.90
2019-03-04T00:18:28.227Z,99.90
2019-03-04T00:21:10.107Z,99.90
2019-03-04T00:23:50.726Z,99.90
2019-03-04T00:26:31.657Z,99.90
2019-03-04T00:29:12.821Z,99.90
2019-03-04T00:31:53.452Z,99.90
2019-03-04T00:37:40.376Z,99.90
2019-03-04T00:40:21.601Z,99.90
2019-03-04T00:43:02.315Z,99.90
2019-03-04T00:45:43.294Z,99.90
2019-03-04T00:48:24.109Z,99.90
2019-03-04T00:51:05.644Z,99.90
2019-03-04T00:53:46.204Z,99.90
2019-03-04T00:56:27.441Z,99.90
2019-03-04T00:59:08.119Z,99.90
2019-03-04T01:01:49.760Z,99.90
2019-03-04T01:04:30.504Z,99.90
2019-03-04T01:07:10.987Z,99.90
2019-03-04T01:09:52.079Z,99.90
2019-03-04T01:12:34.153Z,99.90
2019-03-04T01:15:15.288Z,99.90
2019-03-04T01:17:56.693Z,99.90
2019-03-04T01:20:37.193Z,99.90
2019-03-04T01:23:18.839Z,99.90
2019-03-04T01:25:59.396Z,99.90
2019-03-04T01:28:40.467Z,99.90
2019-03-04T01:31:21.539Z,99.90
2019-03-04T01:34:02.208Z,99.90
2019-03-04T01:36:42.598Z,99.90
2019-03-04T01:39:23.544Z,99.90
2019-03-04T01:42:04.223Z,99.90
2019-03-04T01:44:45.561Z,99.90
2019-03-04T01:50:10.065Z,99.90
2019-03-04T01:52:51.087Z,99.90
2019-03-04T01:55:32.702Z,99.90
2019-03-04T02:00:57.949Z,99.90
2019-03-04T02:03:39.180Z,99.90
2019-03-04T02:06:20.461Z,99.90
2019-03-04T02:09:01.587Z,99.90
2019-03-04T02:11:42.310Z,99.90
2019-03-04T02:14:23.586Z,99.90
2019-03-04T02:17:04.787Z,99.90
2019-03-04T02:19:45.274Z,99.90
2019-03-04T02:22:26.111Z,99.90
2019-03-04T02:25:07.338Z,99.90
2019-03-04T02:27:49.727Z,99.90
2019-03-04T02:33:21.629Z,99.90
2019-03-04T02:36:02.402Z,99.90
2019-03-04T02:38:43.383Z,99.90
2019-03-04T02:41:23.961Z,99.90
2019-03-04T02:44:04.179Z,99.90
2019-03-04T02:46:46.059Z,99.90
2019-03-04T02:49:26.879Z,99.90
2019-03-04T02:52:07.668Z,99.90
2019-03-04T02:54:48.307Z,99.90
2019-03-04T02:57:29.027Z,99.90
2019-03-04T03:00:09.989Z,99.90
2019-03-04T03:02:51.781Z,99.90
2019-03-04T03:05:32.211Z,99.90
2019-03-04T03:08:12.952Z,99.90
2019-03-04T03:10:53.495Z,99.90
2019-03-04T03:13:34.918Z,99.90
2019-03-04T03:16:15.577Z,99.90
2019-03-04T03:18:56.316Z,99.90
2019-03-04T03:21:38.448Z,99.90
2019-03-04T03:24:19.688Z,99.90
2019-03-04T03:27:00.539Z,99.90
2019-03-04T03:32:25.689Z,99.90
2019-03-04T03:37:55.774Z,99.90
2019-03-04T03:43:28.035Z,99.90
2019-03-04T03:46:08.697Z,99.90
2019-03-04T03:51:34.071Z,99.90
2019-03-04T03:54:14.555Z,99.90
2019-03-04T03:56:56.158Z,99.90
2019-03-04T03:59:38.075Z,99.90
2019-03-04T04:02:19.747Z,99.90
2019-03-04T04:05:02.702Z,99.90
2019-03-04T04:07:43.364Z,99.90
2019-03-04T04:10:23.925Z,99.90
2019-03-04T04:13:04.833Z,99.90
2019-03-04T04:15:45.618Z,99.90
2019-03-04T04:18:26.474Z,99.90
2019-03-04T04:21:07.199Z,99.90
2019-03-04T04:23:48.326Z,99.90
2019-03-04T04:26:29.607Z,99.90
2019-03-04T04:29:10.872Z,99.90
2019-03-04T04:31:52.285Z,99.30
2019-03-04T04:34:33.200Z,98.90
2019-03-04T04:37:13.947Z,98.60
2019-03-04T04:39:56.152Z,97.30
2019-03-04T04:42:36.842Z,98.10
2019-03-04T04:45:17.569Z,97.60
2019-03-04T04:47:58.491Z,98.60
2019-03-04T04:53:23.680Z,99.90
2019-03-04T04:55:52.105Z,99.90
2019-03-04T04:58:42.246Z,99.90
2019-03-04T05:04:58.247Z,99.70
2019-03-04T05:07:46.289Z,99.60
2019-03-04T05:16:28.691Z,99.90
2019-03-04T05:19:16.604Z,99.90
2019-03-04T05:21:57.598Z,99.50
2019-03-04T05:24:38.315Z,97.20
2019-03-04T05:27:19.670Z,96.50
2019-03-04T05:30:00.455Z,97.40
2019-03-04T05:32:42.128Z,96.50
2019-03-04T05:35:24.188Z,97.40
2019-03-04T05:38:04.752Z,97.70
2019-03-04T05:40:45.422Z,96.80
2019-03-04T05:43:26.040Z,97.30
2019-03-04T05:46:06.792Z,96.30
2019-03-04T05:48:47.561Z,98.10
2019-03-04T05:51:28.413Z,97.90
2019-03-04T05:54:09.230Z,98.20
2019-03-04T05:56:49.728Z,97.40
2019-03-04T05:59:30.983Z,97.10
2019-03-04T06:02:11.644Z,97.10
2019-03-04T06:04:53.168Z,97.30
2019-03-04T06:07:35.926Z,98.00
2019-03-04T06:10:18.019Z,97.60
2019-03-04T06:12:59.049Z,97.80
2019-03-04T06:15:39.379Z,97.70
2019-03-04T06:18:20.285Z,98.30
2019-03-04T06:21:02.155Z,98.40
2019-03-04T06:23:43.844Z,98.40
2019-03-04T06:26:25.256Z,98.50
2019-03-04T06:28:53.700Z,98.20
2019-03-04T06:31:41.449Z,97.80
2019-03-04T06:34:29.237Z,98.30
2019-03-04T06:37:17.259Z,99.00
2019-03-04T06:40:25.799Z,99.10
2019-03-04T06:43:13.644Z,99.50
2019-03-04T06:46:01.408Z,99.80
2019-03-04T06:48:49.213Z,99.90
2019-03-04T06:51:37.959Z,99.90
2019-03-04T06:54:46.481Z,99.90
2019-03-04T06:57:34.233Z,99.90
2019-03-04T07:00:43.003Z,99.90
2019-03-04T07:03:30.833Z,99.90
2019-03-04T07:06:18.630Z,99.90
2019-03-04T07:09:07.295Z,99.90
2019-03-04T07:11:55.311Z,99.90
2019-03-04T07:14:43.111Z,99.90
2019-03-04T07:17:30.893Z,99.90
2019-03-04T07:20:38.087Z,99.90
2019-03-04T07:23:25.836Z,99.90
2019-03-04T07:26:13.725Z,99.90
2019-03-04T07:29:01.505Z,99.90
2019-03-04T07:31:49.568Z,99.90
2019-03-04T07:37:31.076Z,99.90
2019-03-04T07:40:19.719Z,99.90
2019-03-04T07:45:58.276Z,99.90
2019-03-04T07:48:46.047Z,99.90
2019-03-04T07:54:49.142Z,99.90
2019-03-04T07:57:36.911Z,99.90
2019-03-04T08:00:25.017Z,99.90
2019-03-04T08:03:13.057Z,99.90
2019-03-04T08:06:21.791Z,99.90
2019-03-04T08:09:29.412Z,99.90
2019-03-04T08:12:36.776Z,99.90
2019-03-04T08:15:24.544Z,99.90
2019-03-04T08:18:12.676Z,99.90
2019-03-04T08:20:53.661Z,99.90
2019-03-04T08:23:34.642Z,99.90
2019-03-04T08:26:15.422Z,99.90
2019-03-04T08:28:56.036Z,99.90
2019-03-04T08:31:36.760Z,99.90
2019-03-04T08:34:17.569Z,99.90
2019-03-04T08:36:58.449Z,99.90
2019-03-04T08:39:39.144Z,99.90
2019-03-04T08:42:21.372Z,99.90
2019-03-04T08:45:02.043Z,99.90
2019-03-04T08:47:42.912Z,99.90
2019-03-04T08:50:23.369Z,99.90
2019-03-04T08:53:04.576Z,99.90
2019-03-04T08:55:45.481Z,99.90
2019-03-04T08:58:27.622Z,99.90
2019-03-04T09:01:09.074Z,99.90
2019-03-04T09:03:38.320Z,99.90
2019-03-04T09:06:26.532Z,99.90
2019-03-04T09:09:14.604Z,99.90
2019-03-04T09:14:57.370Z,99.90
2019-03-04T09:17:45.237Z,99.90
2019-03-04T09:20:26.740Z,99.90
2019-03-04T09:23:07.107Z,99.90
2019-03-04T09:25:52.828Z,99.90
2019-03-04T09:28:33.581Z,99.90
2019-03-04T09:37:22.636Z,99.90
2019-03-04T09:40:03.111Z,99.90
2019-03-04T09:42:45.676Z,99.90
2019-03-04T09:45:26.977Z,99.90
2019-03-04T09:48:07.956Z,99.90
2019-03-04T09:50:48.670Z,99.90
2019-03-04T09:53:39.062Z,99.90
2019-03-04T09:56:13.235Z,99.90
2019-03-04T09:58:53.942Z,99.90
2019-03-04T10:01:35.187Z,99.90
2019-03-04T10:04:16.287Z,99.90
2019-03-04T10:06:57.155Z,99.90
2019-03-04T10:09:37.686Z,99.90
2019-03-04T10:12:18.755Z,99.90
2019-03-04T10:15:07.996Z,99.90
2019-03-04T10:17:42.428Z,99.90
2019-03-04T10:20:23.313Z,99.90
2019-03-04T10:23:04.209Z,99.90
2019-03-04T10:25:44.909Z,99.90
2019-03-04T10:28:25.398Z,99.90
2019-03-04T10:31:05.833Z,99.90
2019-03-04T10:33:46.919Z,99.90
2019-03-04T10:36:27.939Z,99.90
2019-03-04T10:39:08.414Z,99.90
2019-03-04T10:41:49.242Z,99.90
2019-03-04T10:44:30.081Z,99.90
2019-03-04T10:47:11.369Z,99.90
2019-03-04T10:49:52.248Z,99.90
2019-03-04T10:52:32.951Z,99.90
2019-03-04T10:55:13.812Z,99.90
2019-03-04T10:57:54.892Z,99.90
2019-03-04T11:00:36.148Z,99.90
2019-03-04T11:03:20.650Z,99.90
2019-03-04T11:06:01.279Z,99.90
2019-03-04T11:08:42.370Z,99.90
2019-03-04T11:11:29.959Z,99.90
2019-03-04T11:14:06.184Z,99.90
2019-03-04T11:16:46.806Z,99.90
2019-03-04T11:19:28.930Z,99.90
2019-03-04T11:22:09.877Z,99.90
2019-03-04T11:24:50.524Z,99.90
2019-03-04T11:27:31.053Z,99.90
2019-03-04T11:30:12.221Z,99.90
2019-03-04T11:32:52.785Z,99.90
2019-03-04T11:35:34.277Z,99.90
2019-03-04T11:38:14.815Z,99.90
2019-03-04T11:40:56.153Z,99.90
2019-03-04T11:43:37.179Z,99.90
2019-03-04T11:46:20.462Z,99.90
2019-03-04T11:49:01.512Z,99.90
2019-03-04T11:51:43.012Z,99.90
2019-03-04T11:54:23.692Z,99.90
2019-03-04T11:57:06.572Z,99.90
2019-03-04T11:59:47.018Z,99.90
2019-03-04T12:02:28.302Z,99.90
2019-03-04T12:05:09.754Z,99.90
2019-03-04T12:07:52.373Z,99.90
2019-03-04T12:10:33.707Z,99.90
2019-03-04T12:13:15.989Z,99.90
2019-03-04T12:18:47.928Z,99.90
2019-03-04T12:21:29.651Z,99.90
2019-03-04T12:24:10.831Z,99.40
2019-03-04T12:26:51.845Z,98.50
2019-03-04T12:29:32.208Z,97.90
2019-03-04T12:32:13.692Z,96.20
2019-03-04T12:34:54.399Z,97.60
2019-03-04T12:37:22.832Z,97.10
2019-03-04T12:40:31.868Z,96.20
2019-03-04T12:43:19.972Z,96.50
2019-03-04T12:46:08.318Z,96.30
2019-03-04T12:49:16.891Z,96.70
2019-03-04T12:58:06.942Z,94.50
2019-03-04T13:00:55.534Z,93.50
2019-03-04T13:03:43.690Z,90.00
2019-03-04T13:06:31.726Z,87.80
2019-03-04T13:09:19.560Z,88.70
2019-03-04T13:12:07.523Z,90.40
2019-03-04T13:14:55.338Z,89.20
2019-03-04T13:17:43.126Z,87.80
2019-03-04T13:20:24.531Z,85.80
2019-03-04T13:22:53.030Z,84.20
2019-03-04T13:25:40.810Z,84.60
2019-03-04T13:28:28.572Z,82.20
2019-03-04T13:31:16.343Z,83.50
2019-03-04T13:34:04.188Z,82.40
2019-03-04T13:37:12.676Z,83.20
2019-03-04T13:40:00.723Z,84.70
2019-03-04T13:42:49.619Z,86.00
2019-03-04T13:45:38.391Z,86.40
2019-03-04T13:48:26.719Z,85.60
2019-03-04T13:57:09.382Z,85.80
2019-03-04T13:59:57.760Z,88.20
2019-03-04T14:05:41.222Z,90.60
2019-03-04T14:08:28.997Z,91.40
2019-03-04T14:11:16.803Z,91.00
2019-03-04T14:14:04.756Z,91.80
2019-03-04T14:20:11.111Z,99.90
2019-03-04T14:22:57.779Z,99.90
2019-03-04T14:25:34.898Z,99.90
2019-03-04T14:28:17.006Z,99.90
2019-03-04T14:30:59.487Z,99.90
2019-03-04T14:33:41.899Z,99.90
2019-03-04T14:36:23.053Z,99.90
2019-03-04T14:39:04.558Z,99.90
2019-03-04T14:41:45.243Z,99.90
2019-03-04T14:44:26.070Z,99.90
2019-03-04T14:47:06.336Z,99.90
2019-03-04T14:49:47.921Z,99.90
2019-03-04T14:52:28.887Z,99.90
2019-03-04T14:57:59.225Z,99.90
2019-03-04T15:00:41.585Z,99.90
2019-03-04T15:03:23.897Z,99.90
2019-03-04T15:06:07.160Z,99.90
2019-03-04T15:08:48.712Z,99.90
2019-03-04T15:11:30.279Z,99.90
2019-03-04T15:14:10.999Z,99.90
2019-03-04T15:16:52.259Z,99.90
2019-03-04T15:19:32.989Z,99.90
2019-03-04T15:22:13.719Z,99.90
2019-03-04T15:24:54.877Z,99.90
2019-03-04T15:27:36.123Z,99.90
2019-03-04T15:30:16.756Z,99.90
2019-03-04T15:32:58.626Z,99.90
2019-03-04T15:35:39.566Z,99.90
2019-03-04T15:38:20.846Z,99.90
2019-03-04T15:40:49.316Z,99.90
2019-03-04T15:43:37.339Z,99.90
2019-03-04T15:46:25.348Z,99.90
2019-03-04T15:49:16.102Z,99.90
2019-03-04T15:52:06.855Z,99.90
2019-03-04T15:54:55.469Z,99.90
2019-03-04T16:00:43.634Z,99.90
2019-03-04T16:03:31.418Z,99.90
2019-03-04T16:06:19.203Z,99.90
2019-03-04T16:09:27.972Z,99.90
2019-03-04T16:15:34.346Z,99.90
2019-03-04T16:18:02.934Z,99.90
2019-03-04T16:20:43.322Z,99.90
2019-03-04T16:23:24.112Z,99.90
2019-03-04T16:26:04.674Z,99.90
2019-03-04T16:28:45.606Z,99.90
2019-03-04T16:31:26.384Z,99.90
2019-03-04T16:34:06.788Z,99.90
2019-03-04T16:36:47.545Z,99.90
2019-03-04T16:39:28.396Z,99.90
2019-03-04T16:42:10.054Z,99.90
2019-03-04T16:44:51.180Z,99.90
2019-03-04T16:47:31.800Z,99.90
2019-03-04T16:50:14.695Z,99.90
2019-03-04T16:55:43.144Z,99.90
2019-03-04T16:58:24.183Z,99.90
2019-03-04T17:01:06.462Z,99.90
2019-03-04T17:03:47.512Z,99.90
2019-03-04T17:06:28.449Z,99.90
2019-03-04T17:09:09.670Z,99.90
2019-03-04T17:11:51.659Z,99.90
2019-03-04T17:14:35.285Z,99.90
2019-03-04T17:17:15.450Z,99.90
2019-03-04T17:19:58.073Z,99.90
2019-03-04T17:22:39.185Z,99.90
2019-03-04T17:25:20.147Z,99.90
2019-03-04T17:28:01.153Z,99.90
2019-03-04T17:30:41.927Z,99.90
2019-03-04T17:33:22.937Z,99.90
2019-03-04T17:36:03.850Z,99.90
2019-03-04T17:38:44.495Z,99.90
2019-03-04T17:41:24.997Z,99.90
2019-03-04T17:44:06.062Z,99.90
2019-03-04T17:46:47.481Z,99.90
2019-03-04T17:49:28.419Z,99.90
2019-03-04T17:52:09.182Z,99.90
2019-03-04T17:54:49.971Z,99.90
2019-03-04T17:57:30.401Z,99.90
2019-03-04T18:00:11.458Z,99.90
2019-03-04T18:02:39.885Z,99.90
2019-03-04T18:05:27.923Z,99.90
2019-03-04T18:08:15.720Z,99.90
2019-03-04T18:11:05.450Z,99.90
2019-03-04T18:13:53.536Z,99.90
2019-03-04T18:16:22.242Z,99.90
2019-03-04T18:19:10.342Z,99.90
2019-03-04T18:21:51.876Z,99.90
2019-03-04T18:24:32.295Z,99.90
2019-03-04T18:27:13.613Z,99.90
2019-03-04T18:29:55.231Z,99.90
2019-03-04T18:32:36.956Z,99.90
2019-03-04T18:35:17.911Z,99.90
2019-03-04T18:37:59.494Z,99.90
2019-03-04T18:40:40.121Z,99.90
2019-03-04T18:43:20.925Z,99.90
2019-03-04T18:46:01.452Z,99.90
2019-03-04T18:48:42.232Z,99.90
2019-03-04T18:51:22.940Z,99.90
2019-03-04T18:54:04.525Z,99.90
2019-03-04T18:56:45.467Z,99.90
2019-03-04T18:59:26.171Z,99.90
2019-03-04T19:02:06.845Z,99.90
2019-03-04T19:04:47.778Z,99.90
2019-03-04T19:07:31.488Z,99.90
2019-03-04T19:10:13.223Z,99.90
2019-03-04T19:12:53.728Z,99.90
2019-03-04T19:15:34.611Z,99.90
2019-03-04T19:18:17.881Z,99.90
2019-03-04T19:20:58.726Z,99.90
2019-03-04T19:26:23.675Z,99.90
2019-03-04T19:29:06.448Z,99.90
2019-03-04T19:31:47.826Z,99.90
2019-03-04T19:34:28.718Z,99.90
2019-03-04T19:37:09.443Z,99.90
2019-03-04T19:39:50.069Z,99.90
2019-03-04T19:42:31.952Z,99.90
2019-03-04T19:45:12.614Z,99.90
2019-03-04T19:47:53.446Z,99.90
2019-03-04T19:50:34.181Z,99.90
2019-03-04T19:53:15.525Z,99.90
2019-03-04T19:55:56.491Z,99.90
2019-03-04T19:58:37.365Z,99.90
2019-03-04T20:01:18.119Z,99.90
2019-03-04T20:03:59.488Z,99.90
2019-03-04T20:06:40.403Z,99.90
2019-03-04T20:09:21.201Z,99.90
2019-03-04T20:12:02.193Z,99.90
2019-03-04T20:14:43.056Z,99.90
2019-03-04T20:17:25.455Z,99.90
2019-03-04T20:20:06.427Z,99.90
2019-03-04T20:22:47.436Z,99.90
2019-03-04T20:25:27.686Z,99.90
2019-03-04T20:28:08.495Z,99.90
2019-03-04T20:30:50.732Z,99.90
2019-03-04T20:33:31.894Z,99.90
2019-03-04T20:36:12.823Z,99.90
2019-03-04T20:38:53.569Z,99.90
2019-03-04T20:41:34.970Z,99.90
2019-03-04T20:47:04.771Z,99.90
2019-03-04T20:49:45.346Z,99.90
2019-03-04T20:52:26.355Z,99.90
2019-03-04T20:55:07.245Z,99.90
2019-03-04T20:57:48.847Z,99.90
2019-03-04T21:00:33.223Z,99.90
2019-03-04T21:03:19.091Z,99.90
2019-03-04T21:08:48.059Z,99.90
2019-03-04T21:11:32.408Z,99.90
2019-03-04T21:17:01.065Z,99.90
2019-03-04T21:22:31.620Z,99.90
2019-03-04T21:25:12.636Z,99.90
2019-03-04T21:27:56.461Z,99.90
2019-03-04T21:30:37.912Z,99.90
2019-03-04T21:36:30.893Z,99.90
2019-03-04T21:39:39.521Z,99.90
2019-03-04T21:42:46.701Z,99.90
2019-03-04T21:45:53.801Z,99.90
2019-03-04T21:49:02.583Z,99.90
2019-03-04T21:52:19.920Z,99.90
2019-03-04T21:57:52.007Z,99.90
2019-03-04T22:03:48.574Z,99.90
2019-03-04T22:06:36.810Z,99.90
2019-03-04T22:13:04.146Z,99.90
2019-03-04T22:15:52.300Z,99.90
2019-03-04T22:21:28.162Z,99.90
2019-03-04T22:24:11.711Z,99.90
2019-03-04T22:29:37.861Z,99.90
2019-03-04T22:32:21.135Z,99.90
2019-03-04T22:37:48.218Z,99.90
2019-03-04T22:43:16.366Z,99.90
2019-03-04T22:48:46.863Z,99.90
2019-03-04T22:57:07.980Z,99.90
2019-03-04T22:59:48.604Z,99.90
2019-03-04T23:02:29.294Z,99.90
2019-03-04T23:05:10.455Z,99.90
2019-03-04T23:10:41.525Z,99.90
2019-03-04T23:13:24.821Z,99.90
2019-03-04T23:18:51.657Z,99.90
2019-03-04T23:24:20.024Z,99.90
2019-03-04T23:29:46.512Z,99.90
2019-03-04T23:32:27.702Z,99.90
2019-03-04T23:35:10.694Z,99.90
2019-03-04T23:40:41.211Z,99.90
2019-03-04T23:46:06.270Z,99.90
2019-03-04T23:51:43.010Z,99.90
2019-03-04T23:54:23.486Z,99.90
2019-03-04T23:59:49.247Z,99.90
